createdAt,value
2018-08-13T00:00:03.616Z,90.58
2018-08-13T00:01:03.539Z,91.19
2018-08-13T00:02:03.464Z,90.14
2018-08-13T00:03:03.392Z,90.53
2018-08-13T00:04:03.322Z,90.43
2018-08-13T00:05:03.244Z,90.53
2018-08-13T00:06:03.181Z,90.81
2018-08-13T00:07:03.094Z,90.53
2018-08-13T00:08:03.019Z,90.23
2018-08-13T00:09:02.946Z,90.53
2018-08-13T00:10:02.873Z,90.14
2018-08-13T00:11:02.796Z,89.57
2018-08-13T00:12:02.722Z,90.81
2018-08-13T00:13:02.650Z,90.23
2018-08-13T00:14:02.575Z,90.14
2018-08-13T00:15:02.501Z,89.66
2018-08-13T00:16:02.426Z,90.05
2018-08-13T00:17:02.353Z,90.33
2018-08-13T00:18:02.279Z,90.62
2018-08-13T00:19:02.204Z,90.72
2018-08-13T00:20:02.131Z,90.91
2018-08-13T00:21:02.056Z,90.91
2018-08-13T00:22:01.984Z,90.81
2018-08-13T00:23:01.907Z,90.72
2018-08-13T00:24:01.835Z,91.00
2018-08-13T00:25:01.760Z,91.39
2018-08-13T00:26:01.687Z,90.53
2018-08-13T00:27:01.611Z,90.53
2018-08-13T00:28:01.537Z,90.91
2018-08-13T00:29:01.463Z,90.81
2018-08-13T00:30:01.390Z,91.39
2018-08-13T00:31:01.317Z,91.00
2018-08-13T00:32:01.241Z,91.29
2018-08-13T00:33:01.167Z,90.53
2018-08-13T00:34:01.093Z,91.00
2018-08-13T00:35:01.019Z,91.29
2018-08-13T00:36:00.945Z,91.10
2018-08-13T00:37:00.872Z,91.00
2018-08-13T00:38:00.796Z,91.39
2018-08-13T00:39:00.724Z,91.19
2018-08-13T00:40:00.648Z,91.39
2018-08-13T00:41:00.575Z,92.06
2018-08-13T00:42:00.499Z,91.58
2018-08-13T00:43:00.424Z,91.29
2018-08-13T00:44:00.351Z,92.11
2018-08-13T00:45:00.277Z,92.40
2018-08-13T00:46:00.202Z,92.21
2018-08-13T00:47:00.129Z,92.21
2018-08-13T00:48:00.055Z,92.68
2018-08-13T00:48:59.980Z,92.49
2018-08-13T00:49:59.908Z,91.63
2018-08-13T00:50:59.832Z,91.72
2018-08-13T00:51:59.757Z,92.40
2018-08-13T00:52:59.683Z,91.72
2018-08-13T00:53:59.613Z,92.30
2018-08-13T00:54:59.535Z,91.67
2018-08-13T00:55:59.460Z,91.39
2018-08-13T00:56:59.387Z,91.86
2018-08-13T00:57:59.312Z,91.39
2018-08-13T00:58:59.237Z,92.06
2018-08-13T00:59:59.162Z,92.15
2018-08-13T01:00:59.089Z,92.63
2018-08-13T01:01:59.016Z,93.59
2018-08-13T01:02:58.940Z,92.63
2018-08-13T01:03:58.867Z,92.44
2018-08-13T01:04:58.792Z,92.82
2018-08-13T01:05:58.719Z,92.73
2018-08-13T01:06:58.646Z,92.15
2018-08-13T01:07:58.570Z,92.54
2018-08-13T01:08:58.495Z,92.25
2018-08-13T01:09:58.421Z,92.63
2018-08-13T01:10:58.349Z,92.15
2018-08-13T01:11:58.273Z,92.92
2018-08-13T01:12:58.211Z,91.00
2018-08-13T01:13:58.124Z,91.19
2018-08-13T01:14:58.050Z,91.49
2018-08-13T01:15:57.976Z,92.06
2018-08-13T01:16:57.903Z,92.73
2018-08-13T01:17:57.828Z,92.63
2018-08-13T01:18:57.761Z,92.73
2018-08-13T01:19:57.679Z,93.21
2018-08-13T01:20:57.605Z,92.97
2018-08-13T01:21:57.536Z,92.35
2018-08-13T01:22:57.456Z,92.73
2018-08-13T01:23:57.383Z,93.59
2018-08-13T01:24:57.309Z,93.49
2018-08-13T01:25:57.236Z,92.63
2018-08-13T01:26:57.211Z,92.73
2018-08-13T01:27:57.086Z,92.54
2018-08-13T01:28:57.012Z,93.49
2018-08-13T01:29:56.939Z,93.40
2018-08-13T01:30:56.864Z,91.49
2018-08-13T01:31:56.790Z,92.25
2018-08-13T01:32:56.716Z,93.30
2018-08-13T01:33:56.642Z,93.40
2018-08-13T01:34:56.567Z,93.21
2018-08-13T01:35:56.494Z,93.59
2018-08-13T01:36:56.420Z,92.35
2018-08-13T01:37:56.348Z,93.26
2018-08-13T01:38:56.271Z,94.12
2018-08-13T01:39:56.196Z,93.45
2018-08-13T01:40:56.123Z,93.45
2018-08-13T01:41:56.050Z,93.35
2018-08-13T01:42:55.973Z,94.02
2018-08-13T01:43:55.900Z,94.02
2018-08-13T01:44:55.828Z,93.45
2018-08-13T01:45:55.753Z,94.12
2018-08-13T01:46:55.678Z,94.89
2018-08-13T01:47:55.604Z,94.69
2018-08-13T01:48:55.531Z,94.21
2018-08-13T01:49:55.455Z,93.16
2018-08-13T01:50:55.380Z,94.12
2018-08-13T01:51:55.306Z,93.45
2018-08-13T01:52:55.234Z,94.69
2018-08-13T01:53:55.159Z,93.93
2018-08-13T01:54:55.084Z,94.98
2018-08-13T01:55:55.010Z,94.89
2018-08-13T01:56:54.935Z,94.31
2018-08-13T01:57:54.860Z,94.50
2018-08-13T01:58:54.787Z,95.07
2018-08-13T01:59:54.712Z,94.69
2018-08-13T02:00:54.640Z,95.22
2018-08-13T02:01:54.568Z,95.12
2018-08-13T02:02:54.488Z,95.03
2018-08-13T02:03:54.414Z,95.22
2018-08-13T02:04:54.340Z,96.84
2018-08-13T02:05:54.265Z,94.84
2018-08-13T02:06:54.191Z,95.70
2018-08-13T02:07:54.117Z,95.70
2018-08-13T02:08:54.042Z,95.27
2018-08-13T02:09:53.968Z,95.56
2018-08-13T02:10:53.893Z,94.98
2018-08-13T02:11:53.819Z,94.40
2018-08-13T02:12:53.745Z,95.22
2018-08-13T02:13:53.670Z,95.79
2018-08-13T02:14:53.596Z,95.36
2018-08-13T02:15:53.523Z,95.07
2018-08-13T02:16:53.446Z,95.17
2018-08-13T02:17:53.372Z,94.89
2018-08-13T02:18:53.297Z,94.55
2018-08-13T02:19:53.223Z,94.89
2018-08-13T02:20:53.150Z,94.45
2018-08-13T02:21:53.077Z,94.21
2018-08-13T02:22:53.001Z,94.98
2018-08-13T02:23:52.924Z,95.27
2018-08-13T02:24:52.849Z,95.65
2018-08-13T02:25:52.776Z,95.36
2018-08-13T02:26:52.699Z,94.98
2018-08-13T02:27:52.626Z,94.84
2018-08-13T02:28:52.551Z,95.51
2018-08-13T02:29:52.478Z,94.31
2018-08-13T02:30:52.403Z,95.84
2018-08-13T02:31:52.327Z,94.98
2018-08-13T02:32:52.254Z,94.89
2018-08-13T02:33:52.184Z,94.98
2018-08-13T02:34:52.106Z,94.02
2018-08-13T02:35:52.032Z,95.36
2018-08-13T02:36:51.958Z,94.50
2018-08-13T02:37:51.881Z,93.35
2018-08-13T02:38:51.807Z,94.31
2018-08-13T02:39:51.734Z,94.02
2018-08-13T02:40:51.666Z,93.93
2018-08-13T02:41:51.583Z,94.50
2018-08-13T02:42:51.508Z,94.69
2018-08-13T02:43:51.436Z,95.56
2018-08-13T02:44:51.359Z,93.35
2018-08-13T02:45:51.285Z,94.31
2018-08-13T02:46:51.210Z,94.21
2018-08-13T02:47:51.140Z,94.69
2018-08-13T02:48:51.063Z,94.69
2018-08-13T02:49:50.988Z,95.17
2018-08-13T02:50:50.912Z,94.69
2018-08-13T02:51:50.843Z,94.98
2018-08-13T02:52:50.764Z,94.12
2018-08-13T02:53:50.689Z,93.35
2018-08-13T02:54:50.615Z,93.93
2018-08-13T02:55:50.541Z,94.12
2018-08-13T02:56:50.471Z,93.16
2018-08-13T02:57:50.392Z,93.45
2018-08-13T02:58:50.318Z,94.21
2018-08-13T02:59:50.242Z,93.45
2018-08-13T03:00:50.169Z,93.64
2018-08-13T03:01:50.100Z,94.40
2018-08-13T03:02:50.019Z,93.45
2018-08-13T03:03:49.945Z,94.69
2018-08-13T03:04:50.029Z,94.60
2018-08-13T03:05:49.799Z,95.94
2018-08-13T03:06:49.721Z,95.36
2018-08-13T03:07:49.648Z,96.03
2018-08-13T03:08:49.574Z,95.94
2018-08-13T03:09:49.507Z,96.99
2018-08-13T03:10:49.424Z,96.18
2018-08-13T03:11:49.349Z,96.03
2018-08-13T03:12:49.276Z,96.22
2018-08-13T03:13:49.202Z,96.32
2018-08-13T03:14:49.126Z,95.84
2018-08-13T03:15:49.052Z,94.12
2018-08-13T03:16:48.978Z,94.40
2018-08-13T03:17:48.904Z,94.60
2018-08-13T03:18:48.830Z,95.07
2018-08-13T03:19:48.755Z,94.69
2018-08-13T03:20:48.680Z,95.75
2018-08-13T03:21:48.610Z,96.61
2018-08-13T03:22:48.531Z,96.32
2018-08-13T03:23:48.457Z,95.65
2018-08-13T03:24:48.383Z,96.51
2018-08-13T03:25:48.331Z,96.42
2018-08-13T03:26:48.235Z,95.75
2018-08-13T03:27:48.158Z,96.51
2018-08-13T03:28:48.085Z,96.13
2018-08-13T03:29:48.012Z,95.36
2018-08-13T03:30:47.935Z,92.97
2018-08-13T03:31:47.870Z,91.67
2018-08-13T03:32:47.789Z,90.43
2018-08-13T03:33:47.714Z,90.00
2018-08-13T03:34:47.638Z,90.57
2018-08-13T03:35:47.564Z,92.39
2018-08-13T03:36:47.491Z,93.44
2018-08-13T03:37:47.422Z,93.35
2018-08-13T03:38:47.341Z,94.26
2018-08-13T03:39:47.267Z,93.21
2018-08-13T03:40:47.194Z,94.64
2018-08-13T03:41:47.120Z,95.79
2018-08-13T03:42:47.046Z,94.93
2018-08-13T03:43:46.972Z,93.78
2018-08-13T03:44:46.897Z,94.07
2018-08-13T03:45:46.824Z,94.64
2018-08-13T03:46:46.749Z,94.74
2018-08-13T03:47:46.682Z,95.89
2018-08-13T03:48:46.601Z,95.79
2018-08-13T03:49:46.528Z,94.93
2018-08-13T03:50:46.453Z,96.08
2018-08-13T03:51:46.378Z,96.32
2018-08-13T03:52:46.303Z,97.56
2018-08-13T03:53:46.279Z,97.18
2018-08-13T03:54:46.156Z,97.47
2018-08-13T03:55:46.114Z,98.05
2018-08-13T03:56:46.011Z,97.47
2018-08-13T03:57:45.934Z,97.56
2018-08-13T03:58:45.859Z,98.33
2018-08-13T03:59:45.785Z,98.33
2018-08-13T04:00:45.711Z,98.52
2018-08-13T04:01:45.637Z,98.14
2018-08-13T04:02:45.564Z,98.91
2018-08-13T04:03:45.488Z,99.67
2018-08-13T04:04:45.413Z,99.19
2018-08-13T04:05:45.339Z,98.43
2018-08-13T04:06:45.265Z,97.66
2018-08-13T04:07:45.189Z,96.66
2018-08-13T04:08:45.119Z,95.98
2018-08-13T04:09:45.043Z,95.60
2018-08-13T04:10:44.967Z,94.45
2018-08-13T04:11:44.893Z,96.75
2018-08-13T04:12:44.875Z,95.65
2018-08-13T04:13:44.746Z,96.75
2018-08-13T04:14:44.671Z,95.46
2018-08-13T04:15:44.597Z,96.13
2018-08-13T04:16:44.522Z,95.17
2018-08-13T04:17:44.448Z,96.51
2018-08-13T04:18:44.375Z,92.87
2018-08-13T04:19:44.301Z,93.63
2018-08-13T04:20:44.228Z,94.31
2018-08-13T04:21:44.153Z,94.21
2018-08-13T04:22:44.080Z,93.83
2018-08-13T04:23:44.005Z,94.35
2018-08-13T04:24:43.932Z,95.46
2018-08-13T04:25:43.859Z,95.89
2018-08-13T04:26:43.785Z,95.17
2018-08-13T04:27:43.710Z,96.61
2018-08-13T04:28:43.638Z,95.75
2018-08-13T04:29:43.564Z,96.22
2018-08-13T04:30:43.490Z,96.32
2018-08-13T04:31:43.416Z,95.84
2018-08-13T04:32:43.425Z,96.42
2018-08-13T04:33:43.270Z,95.17
2018-08-13T04:34:43.196Z,95.84
2018-08-13T04:35:43.121Z,95.70
2018-08-13T04:36:43.049Z,96.56
2018-08-13T04:37:42.976Z,97.23
2018-08-13T04:38:42.934Z,96.47
2018-08-13T04:39:42.834Z,94.26
2018-08-13T04:40:42.758Z,93.68
2018-08-13T04:41:42.682Z,94.84
2018-08-13T04:42:42.607Z,93.68
2018-08-13T04:43:42.533Z,94.64
2018-08-13T04:44:42.461Z,94.45
2018-08-13T04:45:42.388Z,95.03
2018-08-13T04:46:42.314Z,96.47
2018-08-13T04:47:42.241Z,95.51
2018-08-13T04:48:42.167Z,94.26
2018-08-13T04:49:42.095Z,95.31
2018-08-13T04:50:42.019Z,94.84
2018-08-13T04:51:41.947Z,93.15
2018-08-13T04:52:41.880Z,96.27
2018-08-13T04:53:41.805Z,97.04
2018-08-13T04:54:41.726Z,97.71
2018-08-13T04:55:41.653Z,95.89
2018-08-13T04:56:41.581Z,93.59
2018-08-13T04:57:41.510Z,92.48
2018-08-13T04:58:41.433Z,91.91
2018-08-13T04:59:41.359Z,91.81
2018-08-13T05:00:41.288Z,93.92
2018-08-13T05:01:41.215Z,96.51
2018-08-13T05:02:41.139Z,94.98
2018-08-13T05:03:41.068Z,94.74
2018-08-13T05:04:40.995Z,92.77
2018-08-13T05:05:40.920Z,92.48
2018-08-13T05:06:40.847Z,91.62
2018-08-13T05:07:40.774Z,92.96
2018-08-13T05:08:40.701Z,93.63
2018-08-13T05:09:40.630Z,93.73
2018-08-13T05:10:40.555Z,94.88
2018-08-13T05:11:40.480Z,93.82
2018-08-13T05:12:40.409Z,95.55
2018-08-13T05:13:40.336Z,95.94
2018-08-13T05:14:40.261Z,97.38
2018-08-13T05:15:40.189Z,94.98
2018-08-13T05:16:40.115Z,94.88
2018-08-13T05:17:40.044Z,92.96
2018-08-13T05:18:39.970Z,91.86
2018-08-13T05:19:39.897Z,93.39
2018-08-13T05:20:39.824Z,93.59
2018-08-13T05:21:39.751Z,95.31
2018-08-13T05:22:39.680Z,94.26
2018-08-13T05:23:39.605Z,93.10
2018-08-13T05:24:39.533Z,93.59
2018-08-13T05:25:39.460Z,91.66
2018-08-13T05:26:39.389Z,90.70
2018-08-13T05:27:39.313Z,89.98
2018-08-13T05:28:39.240Z,93.82
2018-08-13T05:29:39.170Z,94.49
2018-08-13T05:30:39.095Z,95.89
2018-08-13T05:31:39.023Z,95.26
2018-08-13T05:32:38.949Z,95.84
2018-08-13T05:33:38.879Z,95.17
2018-08-13T05:34:38.805Z,96.03
2018-08-13T05:35:38.732Z,96.03
2018-08-13T05:36:38.659Z,96.70
2018-08-13T05:37:38.588Z,96.13
2018-08-13T05:38:38.513Z,94.40
2018-08-13T05:39:38.443Z,95.45
2018-08-13T05:40:38.370Z,96.22
2018-08-13T05:41:38.296Z,94.64
2018-08-13T05:42:38.224Z,95.40
2018-08-13T05:43:38.151Z,93.77
2018-08-13T05:44:38.079Z,93.49
2018-08-13T05:45:38.008Z,92.05
2018-08-13T05:46:37.934Z,90.84
2018-08-13T05:47:37.861Z,91.99
2018-08-13T05:48:37.789Z,91.99
2018-08-13T05:49:37.718Z,94.68
2018-08-13T05:50:37.645Z,90.45
2018-08-13T05:51:37.572Z,90.45
2018-08-13T05:52:37.500Z,93.53
2018-08-13T05:53:37.430Z,94.45
2018-08-13T05:54:37.356Z,92.04
2018-08-13T05:55:37.285Z,90.69
2018-08-13T05:56:37.213Z,90.12
2018-08-13T05:57:37.140Z,92.33
2018-08-13T05:58:37.070Z,92.81
2018-08-13T05:59:36.998Z,88.29
2018-08-13T06:00:36.928Z,87.23
2018-08-13T06:01:36.859Z,90.89
2018-08-13T06:02:36.785Z,89.44
2018-08-13T06:03:36.713Z,90.79
2018-08-13T06:04:36.646Z,89.58
2018-08-13T06:05:36.569Z,90.73
2018-08-13T06:06:36.495Z,89.35
2018-08-13T06:07:36.423Z,88.87
2018-08-13T06:08:36.352Z,90.83
2018-08-13T06:09:36.281Z,89.97
2018-08-13T06:10:36.208Z,87.56
2018-08-13T06:11:36.257Z,84.62
2018-08-13T06:12:36.066Z,83.47
2018-08-13T06:13:35.995Z,86.35
2018-08-13T06:14:35.923Z,90.78
2018-08-13T06:15:35.850Z,92.38
2018-08-13T06:16:35.779Z,93.77
2018-08-13T06:17:35.715Z,93.68
2018-08-13T06:18:35.638Z,97.14
2018-08-13T06:19:35.563Z,99.88
2018-08-13T06:20:35.493Z,98.24
2018-08-13T06:21:35.420Z,99.99
2018-08-13T06:22:35.347Z,99.78
2018-08-13T06:23:35.277Z,98.48
2018-08-13T06:24:35.206Z,98.39
2018-08-13T06:25:35.132Z,97.04
2018-08-13T06:26:35.074Z,93.82
2018-08-13T06:27:34.988Z,93.92
2018-08-13T06:28:34.918Z,94.11
2018-08-13T06:29:34.846Z,99.68
2018-08-13T06:30:34.773Z,92.57
2018-08-13T06:31:34.700Z,88.73
2018-08-13T06:32:34.628Z,87.15
2018-08-13T06:33:34.557Z,91.37
2018-08-13T06:34:34.511Z,92.33
2018-08-13T06:35:34.412Z,94.06
2018-08-13T06:36:34.343Z,88.10
2018-08-13T06:37:34.276Z,83.87
2018-08-13T06:38:34.194Z,93.73
2018-08-13T06:39:34.123Z,90.45
2018-08-13T06:40:34.052Z,88.24
2018-08-13T06:41:33.979Z,97.47
2018-08-13T06:42:33.907Z,99.01
2018-08-13T06:43:33.838Z,99.99
2018-08-13T06:44:33.764Z,99.99
2018-08-13T06:45:33.692Z,99.64
2018-08-13T06:46:33.621Z,99.99
2018-08-13T06:47:33.549Z,99.99
2018-08-13T06:48:33.480Z,99.99
2018-08-13T06:49:33.404Z,99.99
2018-08-13T06:50:33.333Z,99.99
2018-08-13T06:51:33.261Z,99.99
2018-08-13T06:52:33.191Z,98.00
2018-08-13T06:53:33.121Z,94.68
2018-08-13T06:54:33.046Z,92.38
2018-08-13T06:55:32.976Z,89.92
2018-08-13T06:56:32.903Z,90.78
2018-08-13T06:57:32.833Z,89.24
2018-08-13T06:58:32.760Z,90.20
2018-08-13T06:59:32.688Z,91.84
2018-08-13T07:00:32.616Z,91.46
2018-08-13T07:01:32.546Z,88.85
2018-08-13T07:02:32.473Z,90.01
2018-08-13T07:03:32.401Z,91.65
2018-08-13T07:04:32.330Z,87.99
2018-08-13T07:05:32.261Z,86.49
2018-08-13T07:06:32.187Z,85.53
2018-08-13T07:07:32.116Z,84.76
2018-08-13T07:08:32.044Z,86.59
2018-08-13T07:09:31.974Z,84.95
2018-08-13T07:10:31.901Z,88.13
2018-08-13T07:11:31.829Z,88.90
2018-08-13T07:12:31.757Z,91.75
2018-08-13T07:13:31.687Z,91.07
2018-08-13T07:14:31.613Z,93.77
2018-08-13T07:15:31.542Z,90.35
2018-08-13T07:16:31.471Z,91.60
2018-08-13T07:17:31.399Z,90.93
2018-08-13T07:18:31.327Z,91.22
2018-08-13T07:19:31.257Z,93.15
2018-08-13T07:20:31.185Z,88.14
2018-08-13T07:21:31.116Z,89.01
2018-08-13T07:22:31.093Z,90.16
2018-08-13T07:23:30.971Z,94.01
2018-08-13T07:24:30.899Z,91.99
2018-08-13T07:25:30.828Z,93.72
2018-08-13T07:26:30.756Z,92.08
2018-08-13T07:27:30.683Z,92.08
2018-08-13T07:28:30.612Z,97.14
2018-08-13T07:29:30.541Z,98.68
2018-08-13T07:30:30.468Z,99.99
2018-08-13T07:31:30.397Z,95.60
2018-08-13T07:32:30.326Z,94.35
2018-08-13T07:33:30.294Z,99.99
2018-08-13T07:34:30.181Z,99.93
2018-08-13T07:35:30.110Z,99.99
2018-08-13T07:36:30.038Z,99.99
2018-08-13T07:37:29.967Z,99.99
2018-08-13T07:38:29.894Z,99.35
2018-08-13T07:39:29.884Z,99.73
2018-08-13T07:40:29.752Z,96.17
2018-08-13T07:41:29.681Z,95.79
2018-08-13T07:42:29.607Z,99.54
2018-08-13T07:43:29.537Z,99.99
2018-08-13T07:44:29.463Z,98.29
2018-08-13T07:45:29.398Z,98.29
2018-08-13T07:46:29.342Z,98.34
2018-08-13T07:47:29.250Z,98.39
2018-08-13T07:48:29.179Z,97.67
2018-08-13T07:49:29.106Z,95.74
2018-08-13T07:50:29.033Z,95.26
2018-08-13T07:51:28.965Z,96.61
2018-08-13T07:52:28.892Z,96.32
2018-08-13T07:53:28.822Z,95.65
2018-08-13T07:54:28.747Z,94.68
2018-08-13T07:55:28.676Z,97.19
2018-08-13T07:56:28.605Z,97.09
2018-08-13T07:57:28.534Z,96.61
2018-08-13T07:58:28.461Z,96.51
2018-08-13T07:59:28.393Z,96.22
2018-08-13T08:00:28.321Z,94.78
2018-08-13T08:01:28.253Z,93.96
2018-08-13T08:02:28.175Z,95.40
2018-08-13T08:03:28.104Z,95.21
2018-08-13T08:04:28.032Z,97.81
2018-08-13T08:05:27.963Z,96.66
2018-08-13T08:06:27.888Z,96.85
2018-08-13T08:07:27.819Z,95.50
2018-08-13T08:08:27.748Z,93.19
2018-08-13T08:09:27.676Z,94.20
2018-08-13T08:10:27.604Z,95.94
2018-08-13T08:11:27.532Z,94.59
2018-08-13T08:12:27.461Z,94.78
2018-08-13T08:13:27.391Z,98.82
2018-08-13T08:14:27.319Z,94.20
2018-08-13T08:15:27.247Z,95.26
2018-08-13T08:16:27.176Z,94.68
2018-08-13T08:17:27.109Z,95.45
2018-08-13T08:18:27.034Z,94.87
2018-08-13T08:19:26.969Z,96.22
2018-08-13T08:20:26.894Z,95.64
2018-08-13T08:21:26.884Z,96.22
2018-08-13T08:22:26.749Z,97.28
2018-08-13T08:23:26.677Z,97.67
2018-08-13T08:24:26.609Z,98.63
2018-08-13T08:25:26.537Z,97.47
2018-08-13T08:26:26.466Z,97.86
2018-08-13T08:27:26.395Z,96.70
2018-08-13T08:28:26.328Z,97.09
2018-08-13T08:29:26.285Z,98.82
2018-08-13T08:30:26.181Z,98.92
2018-08-13T08:31:26.111Z,99.99
2018-08-13T08:32:26.040Z,99.79
2018-08-13T08:33:25.971Z,99.99
2018-08-13T08:34:25.896Z,99.99
2018-08-13T08:35:25.826Z,99.99
2018-08-13T08:36:25.754Z,99.99
2018-08-13T08:37:25.684Z,99.99
2018-08-13T08:38:25.613Z,99.99
2018-08-13T08:39:25.542Z,99.99
2018-08-13T08:40:25.515Z,99.99
2018-08-13T08:41:25.400Z,99.99
2018-08-13T08:42:25.331Z,99.99
2018-08-13T08:43:25.257Z,99.99
2018-08-13T08:44:25.185Z,99.99
2018-08-13T08:45:25.116Z,99.99
2018-08-13T08:46:25.043Z,99.99
2018-08-13T08:47:24.974Z,99.99
2018-08-13T08:48:24.903Z,99.99
2018-08-13T08:49:24.832Z,99.99
2018-08-13T08:50:24.762Z,99.99
2018-08-13T08:51:24.689Z,99.99
2018-08-13T08:52:24.619Z,99.99
2018-08-13T08:53:24.549Z,99.99
2018-08-13T08:54:24.475Z,99.99
2018-08-13T08:55:24.408Z,99.99
2018-08-13T08:56:24.333Z,99.99
2018-08-13T08:57:24.262Z,99.99
2018-08-13T08:58:24.191Z,99.99
2018-08-13T08:59:24.120Z,99.99
2018-08-13T09:00:24.050Z,99.99
2018-08-13T09:01:23.979Z,99.99
2018-08-13T09:02:23.906Z,98.82
2018-08-13T09:03:23.834Z,98.14
2018-08-13T09:04:23.764Z,96.70
2018-08-13T09:05:23.692Z,92.81
2018-08-13T09:06:23.622Z,91.17
2018-08-13T09:07:23.550Z,91.99
2018-08-13T09:08:23.479Z,96.27
2018-08-13T09:09:23.408Z,87.66
2018-08-13T09:10:23.339Z,94.87
2018-08-13T09:11:23.264Z,95.26
2018-08-13T09:12:23.194Z,93.87
2018-08-13T09:13:23.122Z,89.10
2018-08-13T09:14:23.052Z,88.14
2018-08-13T09:15:22.980Z,92.91
2018-08-13T09:16:22.909Z,96.70
2018-08-13T09:17:22.839Z,93.77
2018-08-13T09:18:22.766Z,95.89
2018-08-13T09:19:22.694Z,90.50
2018-08-13T09:20:22.623Z,88.33
2018-08-13T09:21:22.553Z,87.33
2018-08-13T09:22:22.482Z,89.97
2018-08-13T09:23:22.409Z,84.63
2018-08-13T09:24:22.339Z,85.21
2018-08-13T09:25:22.268Z,86.94
2018-08-13T09:26:22.195Z,89.92
2018-08-13T09:27:22.124Z,83.19
2018-08-13T09:28:22.052Z,81.37
2018-08-13T09:29:21.982Z,80.79
2018-08-13T09:30:21.910Z,83.09
2018-08-13T09:31:21.839Z,87.23
2018-08-13T09:32:21.767Z,83.29
2018-08-13T09:33:21.696Z,82.32
2018-08-13T09:34:21.625Z,78.86
2018-08-13T09:35:21.552Z,74.76
2018-08-13T09:36:21.486Z,82.04
2018-08-13T09:37:21.411Z,79.63
2018-08-13T09:38:21.339Z,78.96
2018-08-13T09:39:21.267Z,79.82
2018-08-13T09:40:21.197Z,77.94
2018-08-13T09:41:21.125Z,80.40
2018-08-13T09:42:21.054Z,77.61
2018-08-13T09:43:20.982Z,81.60
2018-08-13T09:44:20.912Z,80.35
2018-08-13T09:45:20.840Z,78.33
2018-08-13T09:46:20.769Z,73.32
2018-08-13T09:47:20.697Z,75.98
2018-08-13T09:48:20.629Z,78.90
2018-08-13T09:49:20.554Z,79.00
2018-08-13T09:50:20.482Z,74.34
2018-08-13T09:51:20.410Z,71.59
2018-08-13T09:52:20.340Z,81.07
2018-08-13T09:53:20.269Z,78.33
2018-08-13T09:54:20.196Z,82.65
2018-08-13T09:55:20.125Z,76.46
2018-08-13T09:56:20.056Z,83.58
2018-08-13T09:57:19.984Z,79.96
2018-08-13T09:58:19.912Z,80.02
2018-08-13T09:59:19.840Z,79.38
2018-08-13T10:00:19.817Z,80.44
2018-08-13T10:01:19.698Z,81.50
2018-08-13T10:02:19.626Z,86.60
2018-08-13T10:03:19.555Z,82.37
2018-08-13T10:04:19.484Z,79.19
2018-08-13T10:05:19.416Z,78.33
2018-08-13T10:06:19.341Z,77.56
2018-08-13T10:07:19.270Z,77.46
2018-08-13T10:08:19.199Z,87.27
2018-08-13T10:09:19.152Z,79.00
2018-08-13T10:10:19.055Z,75.34
2018-08-13T10:11:18.986Z,76.98
2018-08-13T10:12:18.917Z,81.30
2018-08-13T10:13:18.842Z,77.75
2018-08-13T10:14:18.770Z,78.61
2018-08-13T10:15:18.698Z,77.08
2018-08-13T10:16:18.628Z,75.40
2018-08-13T10:17:18.556Z,74.44
2018-08-13T10:18:18.485Z,74.73
2018-08-13T10:19:18.416Z,75.88
2018-08-13T10:20:18.342Z,81.37
2018-08-13T10:21:18.272Z,74.92
2018-08-13T10:22:18.200Z,73.71
2018-08-13T10:23:18.129Z,71.78
2018-08-13T10:24:18.058Z,70.82
2018-08-13T10:25:17.987Z,72.45
2018-08-13T10:26:17.915Z,71.11
2018-08-13T10:27:17.843Z,74.48
2018-08-13T10:28:17.773Z,73.03
2018-08-13T10:29:17.700Z,73.90
2018-08-13T10:30:17.629Z,73.51
2018-08-13T10:31:17.558Z,69.85
2018-08-13T10:32:17.488Z,65.53
2018-08-13T10:33:17.417Z,67.35
2018-08-13T10:34:17.344Z,68.60
2018-08-13T10:35:17.274Z,65.81
2018-08-13T10:36:17.205Z,63.89
2018-08-13T10:37:17.134Z,64.95
2018-08-13T10:38:17.061Z,59.66
2018-08-13T10:39:16.993Z,60.81
2018-08-13T10:40:16.919Z,60.14
2018-08-13T10:41:16.848Z,60.62
2018-08-13T10:42:16.776Z,62.06
2018-08-13T10:43:16.705Z,64.66
2018-08-13T10:44:16.633Z,63.02
2018-08-13T10:45:16.563Z,61.97
2018-08-13T10:46:16.496Z,67.74
2018-08-13T10:47:16.420Z,65.72
2018-08-13T10:48:16.350Z,66.97
2018-08-13T10:49:16.278Z,66.01
2018-08-13T10:50:16.206Z,71.97
2018-08-13T10:51:16.137Z,67.83
2018-08-13T10:52:16.065Z,66.20
2018-08-13T10:53:15.994Z,65.53
2018-08-13T10:54:15.922Z,66.78
2018-08-13T10:55:15.850Z,67.65
2018-08-13T10:56:15.875Z,66.01
2018-08-13T10:57:15.713Z,68.51
2018-08-13T10:58:15.638Z,67.65
2018-08-13T10:59:15.567Z,67.55
2018-08-13T11:00:15.496Z,69.95
2018-08-13T11:01:15.468Z,62.83
2018-08-13T11:02:15.354Z,67.65
2018-08-13T11:03:15.281Z,68.99
2018-08-13T11:04:15.216Z,62.51
2018-08-13T11:05:15.141Z,64.66
2018-08-13T11:06:15.069Z,64.15
2018-08-13T11:07:14.996Z,65.59
2018-08-13T11:08:14.926Z,73.38
2018-08-13T11:09:14.856Z,65.43
2018-08-13T11:10:14.801Z,67.83
2018-08-13T11:11:14.712Z,67.93
2018-08-13T11:12:14.640Z,65.05
2018-08-13T11:13:14.569Z,69.47
2018-08-13T11:14:14.498Z,71.30
2018-08-13T11:15:14.427Z,75.24
2018-08-13T11:16:14.356Z,70.34
2018-08-13T11:17:14.285Z,69.76
2018-08-13T11:18:14.216Z,73.90
2018-08-13T11:19:14.141Z,73.61
2018-08-13T11:20:14.069Z,74.03
2018-08-13T11:21:14.001Z,74.51
2018-08-13T11:22:13.928Z,79.43
2018-08-13T11:23:13.857Z,73.55
2018-08-13T11:24:13.787Z,74.99
2018-08-13T11:25:13.759Z,78.85
2018-08-13T11:26:13.648Z,78.17
2018-08-13T11:27:13.574Z,84.67
2018-08-13T11:28:13.502Z,78.46
2018-08-13T11:29:13.432Z,74.51
2018-08-13T11:30:13.361Z,79.43
2018-08-13T11:31:13.304Z,81.73
2018-08-13T11:32:13.219Z,81.96
2018-08-13T11:33:13.148Z,83.08
2018-08-13T11:34:13.077Z,76.44
2018-08-13T11:35:13.006Z,79.23
2018-08-13T11:36:12.936Z,81.93
2018-08-13T11:37:12.865Z,84.62
2018-08-13T11:38:12.793Z,72.88
2018-08-13T11:39:12.723Z,82.50
2018-08-13T11:40:12.651Z,80.06
2018-08-13T11:41:12.585Z,81.30
2018-08-13T11:42:12.509Z,74.09
2018-08-13T11:43:12.445Z,80.25
2018-08-13T11:44:12.369Z,78.75
2018-08-13T11:45:12.298Z,82.41
2018-08-13T11:46:12.270Z,82.50
2018-08-13T11:47:12.158Z,87.03
2018-08-13T11:48:12.084Z,80.58
2018-08-13T11:49:12.029Z,77.36
2018-08-13T11:50:11.942Z,79.10
2018-08-13T11:51:11.873Z,80.58
2018-08-13T11:52:11.801Z,80.96
2018-08-13T11:53:11.730Z,77.17
2018-08-13T11:54:11.657Z,82.31
2018-08-13T11:55:11.589Z,81.16
2018-08-13T11:56:11.520Z,82.12
2018-08-13T11:57:11.447Z,73.55
2018-08-13T11:58:11.375Z,80.83
2018-08-13T11:59:11.305Z,77.65
2018-08-13T12:00:11.234Z,75.67
2018-08-13T12:01:11.162Z,81.16
2018-08-13T12:02:11.211Z,79.33
2018-08-13T12:03:11.022Z,80.29
2018-08-13T12:04:10.949Z,83.18
2018-08-13T12:05:10.878Z,82.79
2018-08-13T12:06:10.806Z,81.35
2018-08-13T12:07:10.735Z,88.42
2018-08-13T12:08:10.666Z,80.14
2018-08-13T12:09:10.595Z,81.48
2018-08-13T12:10:10.523Z,83.80
2018-08-13T12:11:10.453Z,78.79
2018-08-13T12:12:10.382Z,82.06
2018-08-13T12:13:10.311Z,88.42
2018-08-13T12:14:10.302Z,91.31
2018-08-13T12:15:10.170Z,83.61
2018-08-13T12:16:10.100Z,84.81
2018-08-13T12:17:10.033Z,87.51
2018-08-13T12:18:09.958Z,82.21
2018-08-13T12:19:09.887Z,83.95
2018-08-13T12:20:09.817Z,81.35
2018-08-13T12:21:09.747Z,80.00
2018-08-13T12:22:09.675Z,76.15
2018-08-13T12:23:09.605Z,85.10
2018-08-13T12:24:09.533Z,80.58
2018-08-13T12:25:09.463Z,84.14
2018-08-13T12:26:09.393Z,83.85
2018-08-13T12:27:09.322Z,83.75
2018-08-13T12:28:09.251Z,84.72
2018-08-13T12:29:09.181Z,91.84
2018-08-13T12:30:09.110Z,82.74
2018-08-13T12:31:09.038Z,81.48
2018-08-13T12:32:08.968Z,90.06
2018-08-13T12:33:08.897Z,90.64
2018-08-13T12:34:08.826Z,91.89
2018-08-13T12:35:08.755Z,86.59
2018-08-13T12:36:08.684Z,89.09
2018-08-13T12:37:08.618Z,90.78
2018-08-13T12:38:08.543Z,87.98
2018-08-13T12:39:08.472Z,89.91
2018-08-13T12:40:08.401Z,88.27
2018-08-13T12:41:08.352Z,93.76
2018-08-13T12:42:08.261Z,93.04
2018-08-13T12:43:08.190Z,92.17
2018-08-13T12:44:08.120Z,91.98
2018-08-13T12:45:08.050Z,94.78
2018-08-13T12:46:07.978Z,94.48
2018-08-13T12:47:07.909Z,93.62
2018-08-13T12:48:07.841Z,93.71
2018-08-13T12:49:07.769Z,93.71
2018-08-13T12:50:07.700Z,95.16
2018-08-13T12:51:07.659Z,93.04